createdAt,value
2023-03-03T00:00:04.016Z,99726.28
2023-03-03T00:02:30.626Z,99732.56
2023-03-03T00:04:57.430Z,99737.13
2023-03-03T00:07:23.863Z,99724.28
2023-03-03T00:09:50.872Z,99737.47
2023-03-03T00:12:29.351Z,99737.47
2023-03-03T00:14:56.062Z,99738.63
2023-03-03T00:17:28.466Z,99747.41
2023-03-03T00:19:55.458Z,99743.31
2023-03-03T00:22:38.465Z,99756.56
2023-03-03T00:25:29.004Z,99755.88
2023-03-03T00:27:56.180Z,99767.41
2023-03-03T00:30:26.941Z,99771.81
2023-03-03T00:32:56.045Z,99768.31
2023-03-03T00:35:38.675Z,99762.22
2023-03-03T00:38:17.171Z,99770.25
2023-03-03T00:40:44.059Z,99769.22
2023-03-03T00:43:22.043Z,99764.91
2023-03-03T00:45:49.644Z,99759.59
2023-03-03T00:48:35.309Z,99770.94
2023-03-03T00:51:18.208Z,99775.19
2023-03-03T00:53:44.636Z,99776.09
2023-03-03T00:56:11.016Z,99763.97
2023-03-03T00:58:37.588Z,99772.88
2023-03-03T01:01:04.091Z,99765.16
2023-03-03T01:03:30.779Z,99764.03
2023-03-03T01:05:57.351Z,99767.63
2023-03-03T01:08:24.295Z,99763.69
2023-03-03T01:10:57.499Z,99763.00
2023-03-03T01:13:29.241Z,99762.28
2023-03-03T01:15:56.094Z,99763.31
2023-03-03T01:18:22.803Z,99768.94
2023-03-03T01:20:49.258Z,99759.28
2023-03-03T01:23:15.708Z,99761.00
2023-03-03T01:25:42.318Z,99758.25
2023-03-03T01:28:08.924Z,99762.63
2023-03-03T01:30:36.366Z,99756.56
2023-03-03T01:33:03.773Z,99753.13
2023-03-03T01:35:30.769Z,99751.31
2023-03-03T01:37:58.373Z,99758.97
2023-03-03T01:40:30.617Z,99760.59
2023-03-03T01:42:59.867Z,99761.50
2023-03-03T01:45:31.846Z,99770.41
2023-03-03T01:48:09.051Z,99774.25
2023-03-03T01:50:54.123Z,99777.16
2023-03-03T01:53:46.373Z,99779.22
2023-03-03T01:56:12.890Z,99773.28
2023-03-03T01:58:50.089Z,99772.41
2023-03-03T02:01:21.964Z,99774.19
2023-03-03T02:03:50.826Z,99778.63
2023-03-03T02:06:20.474Z,99775.16
2023-03-03T02:08:56.153Z,99771.56
2023-03-03T02:11:22.862Z,99757.63
2023-03-03T02:13:49.398Z,99760.19
2023-03-03T02:16:16.307Z,99761.06
2023-03-03T02:18:43.182Z,99749.75
2023-03-03T02:21:11.052Z,99752.38
2023-03-03T02:23:56.801Z,99753.03
2023-03-03T02:26:26.467Z,99755.59
2023-03-03T02:28:53.491Z,99758.06
2023-03-03T02:31:23.147Z,99766.78
2023-03-03T02:33:51.586Z,99761.75
2023-03-03T02:36:32.950Z,99764.75
2023-03-03T02:39:04.827Z,99773.72
2023-03-03T02:41:36.642Z,99782.59
2023-03-03T02:44:09.398Z,99781.09
2023-03-03T02:46:39.513Z,99773.41
2023-03-03T02:49:08.619Z,99778.66
2023-03-03T02:51:36.873Z,99781.47
2023-03-03T02:54:04.396Z,99789.25
2023-03-03T02:56:31.175Z,99791.97
2023-03-03T02:58:57.908Z,99779.59
2023-03-03T03:01:25.029Z,99779.66
2023-03-03T03:03:51.786Z,99785.81
2023-03-03T03:06:18.979Z,99781.47
2023-03-03T03:08:45.390Z,99802.38
2023-03-03T03:11:13.068Z,99805.78
2023-03-03T03:13:39.521Z,99812.63
2023-03-03T03:16:07.371Z,99818.06
2023-03-03T03:18:33.815Z,99814.03
2023-03-03T03:21:12.143Z,99809.66
2023-03-03T03:23:39.567Z,99806.19
2023-03-03T03:26:07.363Z,99810.63
2023-03-03T03:28:34.244Z,99806.50
2023-03-03T03:31:01.633Z,99812.16
2023-03-03T03:33:28.488Z,99807.75
2023-03-03T03:35:56.316Z,99811.22
2023-03-03T03:38:24.124Z,99811.94
2023-03-03T03:40:50.644Z,99800.44
2023-03-03T03:43:17.149Z,99796.00
2023-03-03T03:45:43.919Z,99801.25
2023-03-03T03:48:12.280Z,99804.66
2023-03-03T03:50:38.851Z,99808.38
2023-03-03T03:53:06.567Z,99808.50
2023-03-03T03:55:33.509Z,99804.28
2023-03-03T03:58:00.049Z,99811.25
2023-03-03T04:00:26.546Z,99815.34
2023-03-03T04:02:53.245Z,99823.28
2023-03-03T04:05:20.148Z,99825.09
2023-03-03T04:07:46.555Z,99832.25
2023-03-03T04:10:13.439Z,99820.22
2023-03-03T04:12:39.918Z,99827.28
2023-03-03T04:15:11.665Z,99825.81
2023-03-03T04:17:38.860Z,99831.25
2023-03-03T04:20:07.506Z,99834.72
2023-03-03T04:22:35.881Z,99832.19
2023-03-03T04:25:06.230Z,99834.72
2023-03-03T04:27:34.230Z,99828.66
2023-03-03T04:30:01.399Z,99819.88
2023-03-03T04:32:28.524Z,99834.81
2023-03-03T04:35:05.661Z,99829.31
2023-03-03T04:37:34.163Z,99827.50
2023-03-03T04:40:00.666Z,99819.41
2023-03-03T04:42:28.426Z,99802.06
2023-03-03T04:44:54.795Z,99815.13
2023-03-03T04:47:21.303Z,99809.03
2023-03-03T04:49:48.106Z,99808.06
2023-03-03T04:52:14.518Z,99821.53
2023-03-03T04:54:40.931Z,99822.84
2023-03-03T04:57:09.299Z,99836.19
2023-03-03T04:59:36.452Z,99839.81
2023-03-03T05:02:04.615Z,99855.06
2023-03-03T05:04:31.729Z,99859.34
2023-03-03T05:06:58.312Z,99856.75
2023-03-03T05:09:24.747Z,99861.28
2023-03-03T05:11:51.641Z,99840.44
2023-03-03T05:14:18.400Z,99846.66
2023-03-03T05:16:45.013Z,99854.72
2023-03-03T05:19:11.668Z,99860.66
2023-03-03T05:21:42.516Z,99871.78
2023-03-03T05:24:13.542Z,99862.09
2023-03-03T05:26:41.161Z,99865.41
2023-03-03T05:29:08.587Z,99866.88
2023-03-03T05:31:35.438Z,99862.34
2023-03-03T05:34:02.051Z,99871.78
2023-03-03T05:36:30.016Z,99877.88
2023-03-03T05:38:56.618Z,99880.38
2023-03-03T05:41:23.574Z,99884.81
2023-03-03T05:43:50.211Z,99885.94
2023-03-03T05:46:16.780Z,99881.75
2023-03-03T05:48:45.224Z,99879.97
2023-03-03T05:51:11.627Z,99875.69
2023-03-03T05:53:38.312Z,99878.28
2023-03-03T05:56:04.970Z,99885.16
2023-03-03T05:58:32.239Z,99877.16
2023-03-03T06:00:58.717Z,99881.63
2023-03-03T06:03:26.255Z,99878.97
2023-03-03T06:05:53.532Z,99888.44
2023-03-03T06:08:20.374Z,99889.09
2023-03-03T06:10:47.033Z,99885.38
2023-03-03T06:13:13.574Z,99887.81
2023-03-03T06:15:40.638Z,99894.72
2023-03-03T06:18:07.178Z,99896.31
2023-03-03T06:20:35.333Z,99896.94
2023-03-03T06:23:01.951Z,99901.25
2023-03-03T06:25:28.705Z,99905.44
2023-03-03T06:27:55.131Z,99897.41
2023-03-03T06:30:22.293Z,99918.19
2023-03-03T06:32:48.944Z,99923.25
2023-03-03T06:35:18.637Z,99916.09
2023-03-03T06:37:45.258Z,99921.28
2023-03-03T06:40:12.320Z,99922.84
2023-03-03T06:42:39.262Z,99924.53
2023-03-03T06:45:06.097Z,99932.41
2023-03-03T06:47:33.825Z,99936.56
2023-03-03T06:50:00.232Z,99937.34
2023-03-03T06:52:28.308Z,99952.97
2023-03-03T06:54:57.954Z,99944.13
2023-03-03T06:57:33.567Z,99960.66
2023-03-03T07:00:25.231Z,99955.91
2023-03-03T07:03:08.270Z,99966.03
2023-03-03T07:05:34.855Z,99963.31
2023-03-03T07:08:01.759Z,99971.09
2023-03-03T07:10:30.984Z,99977.13
2023-03-03T07:13:18.477Z,99971.75
2023-03-03T07:15:45.981Z,99979.50
2023-03-03T07:18:53.253Z,99990.19
2023-03-03T07:21:26.384Z,99991.16
2023-03-03T07:23:53.662Z,99993.13
2023-03-03T07:26:25.303Z,100006.78
2023-03-03T07:28:58.516Z,100000.63
2023-03-03T07:31:39.992Z,99997.28
2023-03-03T07:34:44.405Z,99993.94
2023-03-03T07:37:18.514Z,99998.28
2023-03-03T07:39:47.369Z,99993.22
2023-03-03T07:42:20.971Z,99989.50
2023-03-03T07:44:48.763Z,100003.47
2023-03-03T07:47:26.997Z,100010.66
2023-03-03T07:50:18.484Z,100021.88
2023-03-03T07:52:58.116Z,100016.16
2023-03-03T07:55:35.280Z,100012.72
2023-03-03T07:58:21.298Z,100018.84
2023-03-03T08:01:25.005Z,100015.22
2023-03-03T08:03:52.408Z,100008.13
2023-03-03T08:06:26.326Z,100022.13
2023-03-03T08:08:52.763Z,100022.00
2023-03-03T08:11:19.275Z,100023.25
2023-03-03T08:13:46.099Z,100030.47
2023-03-03T08:16:12.915Z,100037.78
2023-03-03T08:18:49.081Z,100028.97
2023-03-03T08:21:23.205Z,100032.72
2023-03-03T08:23:51.608Z,100039.88
2023-03-03T08:26:19.515Z,100035.91
2023-03-03T08:28:47.084Z,100032.09
2023-03-03T08:31:22.515Z,100032.94
2023-03-03T08:33:59.006Z,100037.03
2023-03-03T08:36:25.806Z,100034.66
2023-03-03T08:38:53.104Z,100038.44
2023-03-03T08:41:19.669Z,100041.56
2023-03-03T08:43:46.502Z,100043.91
2023-03-03T08:46:13.016Z,100034.03
2023-03-03T08:48:39.686Z,100027.00
2023-03-03T08:51:06.848Z,100029.66
2023-03-03T08:53:36.380Z,100036.31
2023-03-03T08:56:04.748Z,100043.22
2023-03-03T08:58:35.465Z,100044.91
2023-03-03T09:01:02.556Z,100042.59
2023-03-03T09:03:29.846Z,100043.09
2023-03-03T09:05:56.364Z,100039.06
2023-03-03T09:08:22.774Z,100043.38
2023-03-03T09:10:49.576Z,100049.56
2023-03-03T09:13:19.360Z,100048.13
2023-03-03T09:15:46.720Z,100048.94
2023-03-03T09:18:35.247Z,100049.72
2023-03-03T09:21:01.800Z,100062.13
2023-03-03T09:23:35.765Z,100055.75
2023-03-03T09:26:29.990Z,100063.28
2023-03-03T09:29:04.979Z,100071.78
2023-03-03T09:31:38.624Z,100071.78
2023-03-03T09:34:19.539Z,100074.09
2023-03-03T09:36:46.094Z,100070.41
2023-03-03T09:39:20.290Z,100071.63
2023-03-03T09:42:17.125Z,100077.38
2023-03-03T09:44:45.937Z,100073.84
2023-03-03T09:47:27.668Z,100072.63
2023-03-03T09:50:18.774Z,100076.56
2023-03-03T09:52:58.689Z,100073.22
2023-03-03T09:55:59.439Z,100072.50
2023-03-03T09:58:31.702Z,100072.44
2023-03-03T10:01:26.156Z,100068.72
2023-03-03T10:04:16.223Z,100072.03
2023-03-03T10:06:49.520Z,100069.41
2023-03-03T10:09:43.396Z,100075.34
2023-03-03T10:12:32.801Z,100079.19
2023-03-03T10:15:14.468Z,100084.31
2023-03-03T10:17:50.806Z,100097.69
2023-03-03T10:20:50.700Z,100099.28
2023-03-03T10:23:21.068Z,100095.91
2023-03-03T10:25:53.349Z,100103.06
2023-03-03T10:28:30.380Z,100104.84
2023-03-03T10:31:20.044Z,100103.03
2023-03-03T10:33:57.637Z,100095.47
2023-03-03T10:36:46.596Z,100093.44
2023-03-03T10:39:55.092Z,100089.44
2023-03-03T10:42:31.123Z,100086.88
2023-03-03T10:45:03.448Z,100087.00
2023-03-03T10:48:03.248Z,100085.41
2023-03-03T10:51:00.082Z,100080.47
2023-03-03T10:53:41.108Z,100080.69
2023-03-03T10:56:19.623Z,100071.97
2023-03-03T10:58:55.111Z,100080.81
2023-03-03T11:01:53.697Z,100066.09
2023-03-03T11:04:26.609Z,100064.34
2023-03-03T11:06:58.872Z,100076.69
2023-03-03T11:09:47.149Z,100067.38
2023-03-03T11:12:29.584Z,100073.13
2023-03-03T11:15:18.364Z,100074.13
2023-03-03T11:18:13.612Z,100078.09
2023-03-03T11:20:55.161Z,100078.34
2023-03-03T11:23:43.394Z,100084.34
2023-03-03T11:26:14.955Z,100081.13
2023-03-03T11:28:53.883Z,100071.88
2023-03-03T11:31:59.392Z,100070.34
2023-03-03T11:34:50.236Z,100064.66
2023-03-03T11:37:26.854Z,100055.06
2023-03-03T11:39:58.414Z,100056.25
2023-03-03T11:42:34.794Z,100050.34
2023-03-03T11:45:26.388Z,100049.78
2023-03-03T11:48:01.066Z,100056.19
2023-03-03T11:50:32.842Z,100048.47
2023-03-03T11:53:24.270Z,100040.06
2023-03-03T11:56:00.031Z,100038.81
2023-03-03T11:58:29.363Z,100036.16
2023-03-03T12:01:14.371Z,100041.34
2023-03-03T12:03:48.949Z,100028.72
2023-03-03T12:06:24.979Z,100028.19
2023-03-03T12:09:24.171Z,100028.41
2023-03-03T12:12:08.484Z,100018.03
2023-03-03T12:15:36.326Z,100013.25
2023-03-03T12:18:42.158Z,100003.25
2023-03-03T12:21:29.803Z,100007.59
2023-03-03T12:24:19.484Z,100008.53
2023-03-03T12:26:48.870Z,100009.53
2023-03-03T12:29:25.020Z,100009.16
2023-03-03T12:31:57.690Z,100010.72
2023-03-03T12:34:39.701Z,100005.25
2023-03-03T12:37:27.118Z,99999.50
2023-03-03T12:40:33.674Z,100003.69
2023-03-03T12:43:21.746Z,99997.44
2023-03-03T12:46:09.586Z,99991.06
2023-03-03T12:48:43.300Z,99988.94
2023-03-03T12:51:48.859Z,99997.34
2023-03-03T12:54:24.906Z,99989.38
2023-03-03T12:56:57.134Z,99979.09
2023-03-03T12:59:27.806Z,99985.59
2023-03-03T13:02:04.492Z,99981.09
2023-03-03T13:04:46.850Z,99983.84
2023-03-03T13:07:36.112Z,99979.66
2023-03-03T13:10:14.685Z,99979.47
2023-03-03T13:13:11.542Z,99976.66
2023-03-03T13:15:55.890Z,99980.75
2023-03-03T13:18:26.061Z,99979.78
2023-03-03T13:21:01.243Z,99976.72
2023-03-03T13:23:51.505Z,99973.47
2023-03-03T13:26:44.816Z,99967.84
2023-03-03T13:29:23.982Z,99980.28
2023-03-03T13:32:01.947Z,99971.69
2023-03-03T13:34:43.935Z,99973.75
2023-03-03T13:37:17.411Z,99976.47
2023-03-03T13:39:57.268Z,99965.59
2023-03-03T13:42:44.257Z,99975.81
2023-03-03T13:45:28.767Z,99968.09
2023-03-03T13:48:32.362Z,99968.97
2023-03-03T13:51:05.236Z,99966.91
2023-03-03T13:53:41.626Z,99964.13
2023-03-03T13:56:20.417Z,99954.03
2023-03-03T13:58:59.642Z,99960.78
2023-03-03T14:01:43.190Z,99962.41
2023-03-03T14:04:18.710Z,99960.03
2023-03-03T14:06:56.134Z,99963.38
2023-03-03T14:09:52.278Z,99958.47
2023-03-03T14:12:26.782Z,99952.44
2023-03-03T14:15:04.257Z,99953.16
2023-03-03T14:18:02.735Z,99939.22
2023-03-03T14:20:32.403Z,99945.56
2023-03-03T14:23:08.952Z,99940.75
2023-03-03T14:25:57.254Z,99938.75
2023-03-03T14:28:28.992Z,99934.13
2023-03-03T14:31:09.971Z,99938.03
2023-03-03T14:33:36.960Z,99938.25
2023-03-03T14:36:06.073Z,99930.94
2023-03-03T14:38:32.892Z,99938.31
2023-03-03T14:41:12.307Z,99934.25
2023-03-03T14:43:57.769Z,99941.13
2023-03-03T14:46:27.371Z,99928.50
2023-03-03T14:48:57.239Z,99928.22
2023-03-03T14:51:41.829Z,99919.31
2023-03-03T14:54:15.444Z,99924.44
2023-03-03T14:56:58.456Z,99915.72
2023-03-03T14:59:26.895Z,99913.06
2023-03-03T15:02:18.556Z,99919.34
2023-03-03T15:04:46.128Z,99921.78
2023-03-03T15:07:36.773Z,99915.47
2023-03-03T15:10:07.589Z,99908.84
2023-03-03T15:12:36.805Z,99908.75
2023-03-03T15:15:06.301Z,99908.50
2023-03-03T15:17:54.551Z,99912.84
2023-03-03T15:20:47.840Z,99906.78
2023-03-03T15:23:20.675Z,99908.59
2023-03-03T15:26:05.645Z,99908.75
2023-03-03T15:28:43.608Z,99907.19
2023-03-03T15:31:30.182Z,99906.16
2023-03-03T15:34:17.181Z,99905.28
2023-03-03T15:37:08.080Z,99901.28
2023-03-03T15:39:53.219Z,99900.13
2023-03-03T15:42:35.803Z,99905.09
2023-03-03T15:45:37.866Z,99898.78
2023-03-03T15:48:04.294Z,99899.38
2023-03-03T15:51:01.907Z,99914.22
2023-03-03T15:53:34.315Z,99900.91
2023-03-03T15:56:25.846Z,99905.63
2023-03-03T15:59:01.878Z,99908.03
2023-03-03T16:01:48.872Z,99911.75
2023-03-03T16:04:19.903Z,99915.00
2023-03-03T16:07:00.866Z,99916.88
2023-03-03T16:10:00.660Z,99921.00
2023-03-03T16:12:39.360Z,99929.72
2023-03-03T16:15:19.679Z,99925.69
2023-03-03T16:17:57.064Z,99938.84
2023-03-03T16:20:42.539Z,99950.47
2023-03-03T16:23:14.851Z,99953.59
2023-03-03T16:26:19.241Z,99950.84
2023-03-03T16:29:27.128Z,99955.44
2023-03-03T16:31:54.988Z,99960.81
2023-03-03T16:34:33.468Z,99967.75
2023-03-03T16:37:28.554Z,99962.72
2023-03-03T16:40:01.216Z,99964.69
2023-03-03T16:42:30.189Z,99967.91
2023-03-03T16:45:06.856Z,99963.78
2023-03-03T16:47:54.653Z,99973.69
2023-03-03T16:50:35.416Z,99975.78
2023-03-03T16:53:37.836Z,99982.22
2023-03-03T16:56:23.795Z,99981.94
2023-03-03T16:59:04.492Z,99990.09
2023-03-03T17:02:06.002Z,99995.28
2023-03-03T17:05:04.874Z,100000.44
2023-03-03T17:07:48.763Z,100003.59
2023-03-03T17:10:33.732Z,100008.06
2023-03-03T17:13:21.385Z,100008.16
2023-03-03T17:15:56.848Z,100009.56
2023-03-03T17:18:41.923Z,100016.56
2023-03-03T17:21:33.587Z,100018.56
2023-03-03T17:24:06.810Z,100016.94
2023-03-03T17:26:52.117Z,100016.78
2023-03-03T17:29:33.925Z,100025.47
2023-03-03T17:32:28.212Z,100025.47
2023-03-03T17:35:26.919Z,100031.94
2023-03-03T17:38:32.947Z,100023.03
2023-03-03T17:41:14.209Z,100022.34
2023-03-03T17:44:16.641Z,100035.91
2023-03-03T17:46:51.668Z,100041.47
2023-03-03T17:49:18.313Z,100040.81
2023-03-03T17:52:09.109Z,100047.88
2023-03-03T17:55:09.184Z,100050.66
2023-03-03T17:57:56.822Z,100047.34
2023-03-03T18:00:38.411Z,100049.97
2023-03-03T18:03:40.473Z,100054.56
2023-03-03T18:06:38.213Z,100062.13
2023-03-03T18:09:14.898Z,100060.16
2023-03-03T18:12:01.217Z,100069.31
2023-03-03T18:14:34.050Z,100060.91
2023-03-03T18:17:29.456Z,100060.03
2023-03-03T18:20:11.038Z,100068.31
2023-03-03T18:22:48.606Z,100065.31
2023-03-03T18:25:22.137Z,100066.72
2023-03-03T18:28:08.741Z,100083.66
2023-03-03T18:30:58.450Z,100086.09
2023-03-03T18:33:44.739Z,100089.78
2023-03-03T18:36:15.712Z,100091.63
2023-03-03T18:38:46.796Z,100089.13
2023-03-03T18:41:24.125Z,100097.31
2023-03-03T18:43:55.171Z,100097.41
2023-03-03T18:46:25.010Z,100095.84
2023-03-03T18:48:57.876Z,100102.94
2023-03-03T18:51:39.797Z,100101.34
2023-03-03T18:54:12.529Z,100099.56
2023-03-03T18:57:17.873Z,100106.94
2023-03-03T18:59:58.398Z,100107.94
2023-03-03T19:02:42.406Z,100106.31
2023-03-03T19:05:40.642Z,100109.88
2023-03-03T19:08:26.258Z,100118.63
2023-03-03T19:10:57.284Z,100111.91
2023-03-03T19:13:32.996Z,100111.38
2023-03-03T19:16:02.160Z,100111.69
2023-03-03T19:18:36.112Z,100117.28
2023-03-03T19:21:07.349Z,100123.59
2023-03-03T19:23:52.533Z,100121.59
2023-03-03T19:26:25.360Z,100126.69
2023-03-03T19:29:15.296Z,100132.06
2023-03-03T19:31:51.265Z,100125.09
2023-03-03T19:34:41.369Z,100127.91
2023-03-03T19:37:36.265Z,100126.66
2023-03-03T19:40:23.029Z,100136.44
2023-03-03T19:43:02.669Z,100134.91
2023-03-03T19:45:41.123Z,100136.78
2023-03-03T19:48:42.136Z,100133.56
2023-03-03T19:51:33.828Z,100133.66
2023-03-03T19:54:03.149Z,100130.25
2023-03-03T19:56:50.036Z,100133.91
2023-03-03T19:59:21.829Z,100132.13
2023-03-03T20:01:52.547Z,100135.69
2023-03-03T20:04:45.064Z,100137.47
2023-03-03T20:07:22.546Z,100140.16
2023-03-03T20:10:06.960Z,100146.47
2023-03-03T20:13:00.170Z,100148.16
2023-03-03T20:15:39.840Z,100139.56
2023-03-03T20:18:27.018Z,100142.38
2023-03-03T20:21:21.880Z,100138.19
2023-03-03T20:24:05.582Z,100141.91
2023-03-03T20:26:41.246Z,100150.81
2023-03-03T20:29:26.542Z,100148.34
2023-03-03T20:31:53.050Z,100152.97
2023-03-03T20:34:34.915Z,100149.50
2023-03-03T20:37:21.181Z,100151.41
2023-03-03T20:40:18.237Z,100148.81
2023-03-03T20:42:58.962Z,100145.38
2023-03-03T20:45:37.766Z,100149.69
2023-03-03T20:48:13.172Z,100146.25
2023-03-03T20:50:40.086Z,100142.69
2023-03-03T20:53:13.978Z,100144.25
2023-03-03T20:56:07.630Z,100147.91
2023-03-03T20:58:46.505Z,100146.28
2023-03-03T21:01:16.801Z,100145.44
2023-03-03T21:03:45.219Z,100141.97
2023-03-03T21:06:17.850Z,100141.88
2023-03-03T21:08:54.594Z,100147.91
2023-03-03T21:11:31.724Z,100150.59
2023-03-03T21:13:59.796Z,100150.66
2023-03-03T21:16:26.312Z,100152.50
2023-03-03T21:18:58.844Z,100149.91
2023-03-03T21:21:30.907Z,100148.28
2023-03-03T21:23:59.034Z,100150.19
2023-03-03T21:26:46.178Z,100157.03
2023-03-03T21:29:27.977Z,100157.00
2023-03-03T21:31:56.977Z,100149.91
2023-03-03T21:34:24.860Z,100146.97
2023-03-03T21:36:52.557Z,100160.91
2023-03-03T21:39:43.913Z,100159.94
2023-03-03T21:42:12.927Z,100161.78
2023-03-03T21:44:49.690Z,100163.53
2023-03-03T21:47:18.696Z,100167.88
2023-03-03T21:49:46.836Z,100159.84
2023-03-03T21:52:16.321Z,100161.59
2023-03-03T21:54:45.686Z,100155.25
2023-03-03T21:57:12.589Z,100160.31
2023-03-03T21:59:39.798Z,100152.44
2023-03-03T22:02:07.444Z,100159.44
2023-03-03T22:04:34.694Z,100152.38
2023-03-03T22:07:01.501Z,100159.34
2023-03-03T22:09:28.011Z,100152.94
2023-03-03T22:11:54.549Z,100151.97
2023-03-03T22:14:20.934Z,100155.41
2023-03-03T22:16:47.542Z,100145.69
2023-03-03T22:19:14.040Z,100150.06
2023-03-03T22:21:41.214Z,100154.31
2023-03-03T22:24:08.108Z,100158.53
2023-03-03T22:26:35.562Z,100153.94
2023-03-03T22:29:02.015Z,100160.16
2023-03-03T22:31:28.996Z,100159.97
2023-03-03T22:33:55.580Z,100161.69
2023-03-03T22:36:22.024Z,100159.13
2023-03-03T22:38:49.402Z,100147.53
2023-03-03T22:41:16.117Z,100159.59
2023-03-03T22:43:43.182Z,100149.81
2023-03-03T22:46:10.612Z,100149.44
2023-03-03T22:48:37.738Z,100145.63
2023-03-03T22:51:05.224Z,100141.09
2023-03-03T22:53:31.678Z,100153.13
2023-03-03T22:55:58.305Z,100146.75
2023-03-03T22:58:27.303Z,100145.75
2023-03-03T23:00:54.597Z,100142.09
2023-03-03T23:03:21.699Z,100154.56
2023-03-03T23:05:51.636Z,100158.44
2023-03-03T23:08:19.235Z,100153.56
2023-03-03T23:10:46.064Z,100156.19
2023-03-03T23:13:13.283Z,100150.97
2023-03-03T23:15:40.110Z,100150.72
2023-03-03T23:18:06.778Z,100157.56
2023-03-03T23:20:33.470Z,100157.63
2023-03-03T23:23:00.205Z,100151.53
2023-03-03T23:25:28.880Z,100166.44
2023-03-03T23:27:56.710Z,100155.03
2023-03-03T23:30:23.796Z,100163.59
2023-03-03T23:32:51.609Z,100160.97
2023-03-03T23:35:18.450Z,100158.31
2023-03-03T23:37:45.869Z,100152.03
2023-03-03T23:40:14.589Z,100147.50
2023-03-03T23:42:41.553Z,100148.25
2023-03-03T23:45:08.971Z,100145.63
2023-03-03T23:47:36.020Z,100147.25
2023-03-03T23:50:02.470Z,100138.38
2023-03-03T23:52:29.363Z,100142.69
2023-03-03T23:54:55.820Z,100139.97
2023-03-03T23:57:22.357Z,100136.34
2023-03-03T23:59:48.776Z,100132.75
